createdAt,value
2017-05-08T04:24:34.251Z,60
2017-05-08T04:26:09.675Z,65
2017-05-08T04:27:36.220Z,65
2017-05-08T04:29:03.568Z,70
2017-05-08T04:30:35.321Z,75
2017-05-08T04:33:44.036Z,80
2017-05-08T04:35:12.198Z,85
2017-05-08T04:36:50.981Z,80
2017-05-08T04:38:26.980Z,85
2017-05-08T04:40:03.242Z,90
2017-05-08T04:41:34.462Z,90
2017-05-08T04:43:01.730Z,90
2017-05-08T04:46:13.529Z,95
2017-05-08T04:47:43.940Z,90
2017-05-08T04:49:15.884Z,95
2017-05-08T04:52:16.604Z,105
2017-05-08T04:54:16.761Z,120
2017-05-08T06:31:09.281Z,165
2017-05-08T06:32:36.545Z,240
2017-05-08T06:34:16.245Z,225
2017-05-08T06:37:32.187Z,155
2017-05-08T06:38:57.432Z,180
2017-05-08T06:40:24.873Z,225
2017-05-08T06:41:51.264Z,220
2017-05-08T06:43:40.354Z,190
2017-05-08T06:45:08.916Z,200
2017-05-08T06:46:36.626Z,255
2017-05-08T06:48:02.677Z,215
2017-05-08T06:49:50.405Z,230
2017-05-08T06:51:21.932Z,305
2017-05-08T06:52:48.072Z,340
2017-05-08T06:54:15.489Z,345
2017-05-08T06:55:43.444Z,330
2017-05-08T07:46:15.532Z,425
2017-05-08T07:47:54.181Z,425
2017-05-08T07:49:37.743Z,385
2017-05-08T07:52:25.098Z,420
2017-05-08T07:53:50.787Z,480
2017-05-08T07:55:20.866Z,465
2017-05-08T07:56:54.307Z,455
2017-05-08T07:58:44.921Z,530
2017-05-08T08:00:22.001Z,600
2017-05-08T08:01:49.642Z,580
2017-05-08T08:03:36.191Z,560
2017-05-08T08:10:08.302Z,450
2017-05-08T08:11:43.370Z,490
2017-05-08T08:13:20.215Z,450
2017-05-08T08:16:19.829Z,490
2017-05-08T08:17:58.130Z,485
2017-05-08T08:22:55.290Z,515
2017-05-08T08:24:37.626Z,575
2017-05-08T08:29:32.318Z,490
2017-05-08T08:30:59.430Z,550
2017-05-08T08:32:36.398Z,475
2017-05-08T08:34:06.142Z,440
2017-05-08T08:37:42.723Z,340
2017-05-08T08:39:11.142Z,345
2017-05-08T08:40:51.306Z,335
2017-05-08T08:42:23.407Z,320
2017-05-08T08:43:56.285Z,315
2017-05-08T08:45:31.823Z,290
2017-05-08T08:47:01.735Z,330
2017-05-08T08:48:29.575Z,305
2017-05-08T08:50:06.475Z,320
2017-05-08T08:53:04.138Z,365
2017-05-08T08:54:31.815Z,330
2017-05-08T08:56:15.628Z,320
2017-05-08T09:00:41.568Z,370
2017-05-08T09:04:20.499Z,390
2017-05-08T09:09:31.045Z,485
2017-05-08T09:11:11.350Z,385
2017-05-08T09:12:56.094Z,425
2017-05-08T09:15:37.786Z,600
2017-05-08T09:17:03.762Z,605
2017-05-08T09:20:12.771Z,800
2017-05-08T09:21:52.372Z,750
2017-05-08T09:23:25.153Z,735
2017-05-08T09:27:56.105Z,680
2017-05-08T09:29:28.268Z,740
2017-05-08T09:32:26.549Z,855
2017-05-08T09:33:59.524Z,560
2017-05-08T09:35:34.370Z,445
2017-05-08T09:37:16.145Z,485
2017-05-08T09:38:44.003Z,560
2017-05-08T09:40:12.836Z,680
2017-05-08T09:41:42.582Z,640
2017-05-08T09:43:11.305Z,620
2017-05-08T09:44:48.658Z,635
2017-05-08T09:46:15.521Z,515
2017-05-08T09:56:51.305Z,1055
2017-05-08T10:00:30.091Z,1035
2017-05-08T10:05:14.783Z,785
2017-05-08T10:06:51.688Z,840
2017-05-08T10:08:45.253Z,1060
2017-05-08T10:10:31.709Z,985
2017-05-08T10:14:38.480Z,900
2017-05-08T10:16:13.068Z,1050
2017-05-08T10:19:41.551Z,1140
2017-05-08T10:21:09.402Z,1115
2017-05-08T10:22:39.783Z,970
2017-05-08T10:24:07.487Z,730
2017-05-08T10:25:35.041Z,740
2017-05-08T10:28:40.491Z,1040
2017-05-08T10:31:25.600Z,1225
2017-05-08T10:33:03.357Z,1200
2017-05-08T10:36:11.162Z,1320
2017-05-08T10:42:47.234Z,1110
2017-05-08T10:44:25.176Z,1075
2017-05-08T10:46:08.679Z,1110
2017-05-08T10:47:43.912Z,1180
2017-05-08T10:49:20.920Z,1190
2017-05-08T10:50:48.646Z,1185
2017-05-08T10:52:20.705Z,1115
2017-05-08T10:53:51.492Z,1000
2017-05-08T10:55:23.897Z,915
2017-05-08T10:56:59.854Z,800
2017-05-08T10:58:37.716Z,640
2017-05-08T11:02:02.452Z,785
2017-05-08T11:03:44.138Z,1020
2017-05-08T11:07:16.444Z,935
2017-05-08T11:31:51.068Z,1035
2017-05-08T11:35:13.483Z,800
2017-05-08T11:37:01.590Z,1090
2017-05-08T11:38:41.325Z,800
2017-05-08T11:40:17.618Z,760
2017-05-08T11:41:44.601Z,830
2017-05-08T11:44:54.789Z,685
2017-05-08T11:46:25.517Z,900
2017-05-08T11:47:52.678Z,880
2017-05-08T11:49:19.882Z,740
2017-05-08T11:50:47.071Z,785
2017-05-08T11:52:25.721Z,595
2017-05-08T11:54:04.322Z,465
2017-05-08T11:55:34.086Z,290
2017-05-08T12:00:32.462Z,230
2017-05-08T12:01:59.503Z,325
2017-05-08T12:03:26.774Z,650
2017-05-08T12:08:52.205Z,580
2017-05-08T12:13:15.729Z,510
2017-05-08T12:16:54.006Z,580
2017-05-08T12:18:23.644Z,635
2017-05-08T12:19:52.799Z,610
2017-05-08T12:21:21.582Z,625
2017-05-08T12:36:34.600Z,415
2017-05-08T12:38:03.233Z,420
2017-05-08T12:44:30.529Z,415
2017-05-08T12:45:56.330Z,445
2017-05-08T12:52:49.041Z,525
2017-05-08T12:54:14.872Z,495
2017-05-08T12:55:42.897Z,510
2017-05-08T12:57:20.548Z,590
2017-05-08T12:59:06.616Z,620
2017-05-08T13:00:35.106Z,620
2017-05-08T13:02:00.187Z,585
2017-05-08T13:03:27.192Z,550
2017-05-08T13:06:27.982Z,470
2017-05-08T13:07:58.989Z,560
2017-05-08T13:09:27.728Z,520
2017-05-08T13:10:52.778Z,475
2017-05-08T13:12:19.435Z,600
2017-05-08T13:13:45.635Z,670
2017-05-08T13:15:13.697Z,695
2017-05-08T13:18:20.562Z,680
2017-05-08T13:19:49.694Z,655
2017-05-08T13:21:20.543Z,630
2017-05-08T13:35:00.128Z,775
2017-05-08T13:36:27.374Z,770
2017-05-08T13:41:39.052Z,780
2017-05-08T13:43:13.185Z,690
2017-05-08T13:44:41.818Z,620
2017-05-08T13:47:10.393Z,550
2017-05-08T13:48:42.521Z,465
2017-05-08T13:50:11.609Z,460
2017-05-08T13:54:26.901Z,485
2017-05-08T13:56:06.225Z,360
2017-05-08T13:57:41.599Z,355
2017-05-08T13:59:09.221Z,465
2017-05-08T14:00:35.340Z,520
2017-05-08T14:02:02.381Z,515
2017-05-08T14:03:30.054Z,480
2017-05-08T14:05:07.628Z,470
2017-05-08T14:06:49.308Z,400
2017-05-08T14:09:46.636Z,395
2017-05-08T14:12:55.433Z,360
2017-05-08T14:15:44.057Z,360
2017-05-08T14:28:58.386Z,370
2017-05-08T14:30:29.011Z,355
2017-05-08T14:32:00.963Z,350
2017-05-08T14:33:28.975Z,340
2017-05-08T14:37:41.456Z,325
2017-05-08T14:40:51.555Z,150
2017-05-08T14:42:22.938Z,120
2017-05-08T14:43:49.592Z,110
2017-05-08T14:45:20.832Z,115
2017-05-08T14:46:50.434Z,200
2017-05-08T14:48:19.933Z,220
2017-05-08T14:51:35.624Z,280
2017-05-08T14:56:31.486Z,295
2017-05-08T14:59:47.042Z,335
2017-05-08T15:01:14.950Z,360
2017-05-08T15:02:52.766Z,370
2017-05-08T15:04:20.465Z,360
2017-05-08T15:05:55.753Z,385
2017-05-08T15:07:25.397Z,415
2017-05-08T15:09:00.363Z,425
2017-05-08T15:10:31.975Z,400
2017-05-08T15:11:59.635Z,410
2017-05-08T15:13:33.286Z,465
2017-05-08T15:15:02.850Z,470
2017-05-08T15:16:39.599Z,465
2017-05-08T15:18:17.933Z,410
2017-05-08T15:19:45.766Z,450
2017-05-08T15:27:22.394Z,275
2017-05-08T15:28:51.421Z,240
2017-05-08T15:30:45.336Z,230
2017-05-08T15:32:21.904Z,205
2017-05-08T15:34:02.975Z,185
2017-05-08T15:37:46.447Z,210
2017-05-08T15:39:36.318Z,290
2017-05-08T15:41:14.190Z,240
2017-05-08T15:44:54.560Z,250
2017-05-08T15:46:32.826Z,265
2017-05-08T15:50:21.530Z,205
2017-05-08T15:51:58.504Z,240
2017-05-08T15:55:08.735Z,295
2017-05-08T15:56:46.721Z,295
2017-05-08T16:01:38.884Z,270
2017-05-08T16:05:14.294Z,250
2017-05-08T16:06:59.638Z,245
2017-05-08T16:08:38.868Z,245
2017-05-08T16:10:23.853Z,235
2017-05-08T16:15:59.212Z,240
2017-05-08T16:17:39.570Z,240
2017-05-08T16:19:16.937Z,245
2017-05-08T16:22:39.221Z,255
2017-05-08T16:25:36.641Z,280
2017-05-08T16:28:23.479Z,280
2017-05-08T16:30:01.507Z,280
2017-05-08T16:31:48.239Z,270
2017-05-08T16:33:16.963Z,265
2017-05-08T16:34:55.963Z,255
2017-05-08T16:39:56.410Z,260
2017-05-08T16:41:42.600Z,245
2017-05-08T16:45:20.358Z,175
2017-05-08T16:47:00.150Z,175
2017-05-08T16:48:48.695Z,135
2017-05-08T16:50:31.508Z,145
2017-05-08T16:52:18.082Z,205
2017-05-08T16:53:56.926Z,210
2017-05-08T16:57:35.965Z,185
2017-05-08T16:59:32.193Z,170
2017-05-08T17:02:44.706Z,140
2017-05-08T17:04:25.675Z,175
2017-05-08T17:05:57.364Z,150
2017-05-08T17:08:37.947Z,130
2017-05-08T17:10:06.648Z,125
2017-05-08T17:11:37.500Z,115
2017-05-08T17:13:13.960Z,115
2017-05-08T17:17:02.555Z,125
2017-05-08T17:20:18.935Z,100
2017-05-08T17:21:46.240Z,105
2017-05-08T17:23:32.870Z,85
2017-05-08T17:25:04.726Z,50
2017-05-08T17:41:57.110Z,35
2017-05-08T17:43:36.374Z,35
2017-05-08T17:45:08.882Z,30
2017-05-08T17:46:47.087Z,25
2017-05-08T17:50:01.549Z,35
2017-05-08T17:51:29.690Z,35
2017-05-08T17:53:06.752Z,20
2017-05-08T18:00:43.016Z,15
2017-05-08T18:02:33.137Z,10
2017-05-08T18:03:59.403Z,10
2017-05-08T18:05:24.779Z,10
2017-05-08T18:06:52.565Z,10
2017-05-08T18:08:28.455Z,15
2017-05-08T18:09:54.163Z,15
2017-05-08T18:11:21.021Z,15
2017-05-08T18:12:56.330Z,15
2017-05-08T18:14:21.445Z,15
2017-05-08T18:15:56.635Z,15
2017-05-08T18:17:25.542Z,10
2017-05-08T18:18:51.605Z,5
2017-05-08T18:20:20.021Z,10
2017-05-08T18:21:45.216Z,5
2017-05-08T18:23:14.406Z,5
2017-05-08T18:24:39.130Z,5
2017-05-08T18:26:09.807Z,5
2017-05-08T18:27:37.770Z,5
2017-05-08T18:29:03.890Z,5
2017-05-08T18:30:32.570Z,5
2017-05-08T18:31:59.407Z,10
2017-05-08T18:33:26.158Z,5
2017-05-08T18:35:05.472Z,0
2017-05-08T18:36:31.592Z,0
2017-05-08T18:39:31.615Z,0
2017-05-08T18:44:02.880Z,0
2017-05-08T18:45:33.224Z,0
2017-05-08T18:46:58.571Z,0
2017-05-08T18:48:23.981Z,0
2017-05-08T18:54:59.859Z,0
2017-05-08T18:56:26.108Z,0
2017-05-08T18:58:00.054Z,0
2017-05-08T18:59:26.750Z,0
2017-05-08T19:01:05.842Z,0
2017-05-08T19:02:46.947Z,0
2017-05-08T19:04:16.948Z,0
2017-05-08T19:05:48.809Z,0
2017-05-08T19:07:19.921Z,0
2017-05-08T19:09:04.498Z,0
2017-05-08T19:10:29.424Z,0
2017-05-08T19:14:53.052Z,0
2017-05-08T19:17:40.776Z,0
2017-05-08T19:19:16.149Z,0
2017-05-08T19:20:51.525Z,0
2017-05-08T19:23:45.260Z,0
2017-05-08T19:25:28.248Z,0
2017-05-08T19:27:16.329Z,0
2017-05-08T19:30:38.043Z,0
2017-05-08T19:32:05.530Z,0
2017-05-08T19:33:45.168Z,0
2017-05-08T19:35:13.521Z,0
2017-05-08T19:36:41.282Z,0
2017-05-08T19:38:14.962Z,0
2017-05-08T19:39:56.474Z,0
2017-05-08T19:43:11.771Z,0
2017-05-08T19:44:55.514Z,0
2017-05-08T19:46:32.462Z,0
2017-05-08T19:48:07.224Z,0
2017-05-08T19:49:42.796Z,0
2017-05-08T19:51:09.756Z,0
2017-05-08T19:52:46.871Z,0
2017-05-08T19:54:14.162Z,0
2017-05-08T19:55:40.710Z,0
2017-05-08T20:01:47.501Z,0
2017-05-08T20:06:36.263Z,0
2017-05-08T20:11:20.944Z,0
2017-05-08T20:14:33.766Z,0
2017-05-08T20:16:11.014Z,0
2017-05-08T20:19:51.443Z,0
2017-05-08T20:25:37.218Z,0
2017-05-08T20:27:04.174Z,0
2017-05-08T20:28:31.022Z,0
2017-05-08T20:30:13.672Z,0
2017-05-08T20:31:39.997Z,0
2017-05-08T20:35:58.187Z,0
2017-05-08T20:39:28.428Z,0
2017-05-08T20:41:17.262Z,0
2017-05-08T20:42:53.744Z,0
2017-05-08T20:44:29.277Z,0
2017-05-08T22:16:02.900Z,0
2017-05-08T22:17:49.813Z,0
